sensor_id;sensor_type;location;lat;lon;timestamp;P1;durP1;ratioP1;P2;durP2;ratioP2
19566;SDS011;9930;49.240;8.548;2022-12-29T00:01:25;4.95;;;3.58;;
19566;SDS011;9930;49.240;8.548;2022-12-29T00:03:53;4.68;;;3.50;;
19566;SDS011;9930;49.240;8.548;2022-12-29T00:06:25;4.65;;;3.80;;
19566;SDS011;9930;49.240;8.548;2022-12-29T00:09:02;4.38;;;3.72;;
19566;SDS011;9930;49.240;8.548;2022-12-29T00:11:28;4.80;;;3.92;;
19566;SDS011;9930;49.240;8.548;2022-12-29T00:13:56;3.45;;;3.15;;
19566;SDS011;9930;49.240;8.548;2022-12-29T00:16:42;4.30;;;3.78;;
19566;SDS011;9930;49.240;8.548;2022-12-29T00:19:10;3.92;;;3.53;;
19566;SDS011;9930;49.240;8.548;2022-12-29T00:21:58;4.13;;;3.72;;
19566;SDS011;9930;49.240;8.548;2022-12-29T00:24:43;3.72;;;3.40;;
19566;SDS011;9930;49.240;8.548;2022-12-29T00:27:22;4.00;;;3.60;;
19566;SDS011;9930;49.240;8.548;2022-12-29T00:30:12;4.60;;;4.07;;
19566;SDS011;9930;49.240;8.548;2022-12-29T00:32:59;5.85;;;4.38;;
19566;SDS011;9930;49.240;8.548;2022-12-29T00:35:50;4.40;;;4.00;;
19566;SDS011;9930;49.240;8.548;2022-12-29T00:38:27;4.55;;;4.15;;
19566;SDS011;9930;49.240;8.548;2022-12-29T00:41:16;4.82;;;4.00;;
19566;SDS011;9930;49.240;8.548;2022-12-29T00:44:02;5.22;;;4.13;;
19566;SDS011;9930;49.240;8.548;2022-12-29T00:46:35;4.18;;;3.78;;
19566;SDS011;9930;49.240;8.548;2022-12-29T00:49:03;3.53;;;3.10;;
19566;SDS011;9930;49.240;8.548;2022-12-29T00:51:49;3.03;;;2.75;;
19566;SDS011;9930;49.240;8.548;2022-12-29T00:54:16;3.15;;;2.53;;
19566;SDS011;9930;49.240;8.548;2022-12-29T00:56:43;2.50;;;2.30;;
19566;SDS011;9930;49.240;8.548;2022-12-29T00:59:17;2.67;;;1.92;;
19566;SDS011;9930;49.240;8.548;2022-12-29T01:01:43;2.13;;;1.92;;
19566;SDS011;9930;49.240;8.548;2022-12-29T01:04:14;1.80;;;1.70;;
19566;SDS011;9930;49.240;8.548;2022-12-29T01:06:42;2.05;;;1.80;;
19566;SDS011;9930;49.240;8.548;2022-12-29T01:09:08;3.03;;;1.77;;
19566;SDS011;9930;49.240;8.548;2022-12-29T01:11:57;2.08;;;1.63;;
19566;SDS011;9930;49.240;8.548;2022-12-29T01:14:26;3.05;;;1.80;;
19566;SDS011;9930;49.240;8.548;2022-12-29T01:16:57;2.50;;;1.60;;
19566;SDS011;9930;49.240;8.548;2022-12-29T01:19:25;2.70;;;1.88;;
19566;SDS011;9930;49.240;8.548;2022-12-29T01:21:53;2.65;;;1.70;;
19566;SDS011;9930;49.240;8.548;2022-12-29T01:24:25;1.77;;;1.50;;
19566;SDS011;9930;49.240;8.548;2022-12-29T01:26:56;2.17;;;1.73;;
19566;SDS011;9930;49.240;8.548;2022-12-29T01:29:27;1.60;;;1.50;;
19566;SDS011;9930;49.240;8.548;2022-12-29T01:31:54;1.58;;;1.48;;
19566;SDS011;9930;49.240;8.548;2022-12-29T01:34:22;1.80;;;1.70;;
19566;SDS011;9930;49.240;8.548;2022-12-29T01:36:57;1.92;;;1.63;;
19566;SDS011;9930;49.240;8.548;2022-12-29T01:39:25;1.63;;;1.52;;
19566;SDS011;9930;49.240;8.548;2022-12-29T01:41:52;1.67;;;1.58;;
19566;SDS011;9930;49.240;8.548;2022-12-29T01:47:30;4.93;;;3.17;;
19566;SDS011;9930;49.240;8.548;2022-12-29T01:49:59;4.32;;;3.10;;
19566;SDS011;9930;49.240;8.548;2022-12-29T01:52:52;4.05;;;3.00;;
19566;SDS011;9930;49.240;8.548;2022-12-29T01:55:30;5.97;;;3.33;;
19566;SDS011;9930;49.240;8.548;2022-12-29T01:58:05;5.47;;;2.90;;
19566;SDS011;9930;49.240;8.548;2022-12-29T02:00:32;3.75;;;2.22;;
19566;SDS011;9930;49.240;8.548;2022-12-29T02:03:03;3.28;;;2.55;;
19566;SDS011;9930;49.240;8.548;2022-12-29T02:08:16;5.25;;;2.65;;
19566;SDS011;9930;49.240;8.548;2022-12-29T02:10:43;4.53;;;3.40;;
19566;SDS011;9930;49.240;8.548;2022-12-29T02:13:10;3.90;;;2.28;;
19566;SDS011;9930;49.240;8.548;2022-12-29T02:18:22;1.77;;;1.67;;
19566;SDS011;9930;49.240;8.548;2022-12-29T02:33:04;3.33;;;3.03;;
19566;SDS011;9930;49.240;8.548;2022-12-29T02:45:10;4.07;;;3.08;;
19566;SDS011;9930;49.240;8.548;2022-12-29T02:50:43;3.10;;;2.10;;
19566;SDS011;9930;49.240;8.548;2022-12-29T02:53:29;2.20;;;2.00;;
19566;SDS011;9930;49.240;8.548;2022-12-29T02:56:18;2.28;;;1.80;;
19566;SDS011;9930;49.240;8.548;2022-12-29T02:58:44;2.90;;;2.20;;
19566;SDS011;9930;49.240;8.548;2022-12-29T03:11:10;1.70;;;1.60;;
19566;SDS011;9930;49.240;8.548;2022-12-29T03:14:15;1.80;;;1.65;;
19566;SDS011;9930;49.240;8.548;2022-12-29T03:17:29;1.90;;;1.15;;
19566;SDS011;9930;49.240;8.548;2022-12-29T03:20:45;2.90;;;1.45;;
19566;SDS011;9930;49.240;8.548;2022-12-29T03:23:28;1.77;;;1.50;;
19566;SDS011;9930;49.240;8.548;2022-12-29T03:25:58;2.50;;;1.40;;
19566;SDS011;9930;49.240;8.548;2022-12-29T03:28:32;1.20;;;1.10;;
19566;SDS011;9930;49.240;8.548;2022-12-29T03:31:05;1.00;;;1.00;;
19566;SDS011;9930;49.240;8.548;2022-12-29T03:33:34;1.13;;;1.13;;
19566;SDS011;9930;49.240;8.548;2022-12-29T03:36:03;1.40;;;1.30;;
19566;SDS011;9930;49.240;8.548;2022-12-29T03:38:35;2.03;;;1.25;;
19566;SDS011;9930;49.240;8.548;2022-12-29T03:41:23;2.17;;;1.80;;
19566;SDS011;9930;49.240;8.548;2022-12-29T03:43:56;1.67;;;1.40;;
19566;SDS011;9930;49.240;8.548;2022-12-29T03:46:23;1.40;;;1.30;;
19566;SDS011;9930;49.240;8.548;2022-12-29T03:48:52;1.40;;;1.30;;
19566;SDS011;9930;49.240;8.548;2022-12-29T03:51:22;1.25;;;1.20;;
19566;SDS011;9930;49.240;8.548;2022-12-29T03:53:52;1.40;;;1.30;;
19566;SDS011;9930;49.240;8.548;2022-12-29T03:56:22;1.50;;;1.40;;
19566;SDS011;9930;49.240;8.548;2022-12-29T03:58:52;1.27;;;1.17;;
19566;SDS011;9930;49.240;8.548;2022-12-29T04:01:22;1.33;;;1.23;;
19566;SDS011;9930;49.240;8.548;2022-12-29T04:03:51;1.35;;;1.10;;
19566;SDS011;9930;49.240;8.548;2022-12-29T04:06:25;1.80;;;1.30;;
19566;SDS011;9930;49.240;8.548;2022-12-29T04:08:56;1.45;;;1.35;;
19566;SDS011;9930;49.240;8.548;2022-12-29T04:11:26;1.40;;;1.30;;
19566;SDS011;9930;49.240;8.548;2022-12-29T04:13:53;1.30;;;1.20;;
19566;SDS011;9930;49.240;8.548;2022-12-29T04:16:25;1.20;;;1.13;;
19566;SDS011;9930;49.240;8.548;2022-12-29T04:18:52;1.77;;;1.35;;
19566;SDS011;9930;49.240;8.548;2022-12-29T04:21:22;2.75;;;1.25;;
19566;SDS011;9930;49.240;8.548;2022-12-29T04:23:52;2.40;;;1.40;;
19566;SDS011;9930;49.240;8.548;2022-12-29T04:26:21;1.00;;;1.00;;
19566;SDS011;9930;49.240;8.548;2022-12-29T04:28:47;1.40;;;1.30;;
19566;SDS011;9930;49.240;8.548;2022-12-29T04:31:13;1.10;;;1.00;;
19566;SDS011;9930;49.240;8.548;2022-12-29T04:33:39;1.20;;;1.10;;
19566;SDS011;9930;49.240;8.548;2022-12-29T04:36:07;2.08;;;1.20;;
19566;SDS011;9930;49.240;8.548;2022-12-29T04:38:33;1.45;;;1.30;;
19566;SDS011;9930;49.240;8.548;2022-12-29T04:41:02;1.30;;;1.20;;
19566;SDS011;9930;49.240;8.548;2022-12-29T04:43:28;1.20;;;1.10;;
19566;SDS011;9930;49.240;8.548;2022-12-29T04:45:55;1.40;;;1.30;;
19566;SDS011;9930;49.240;8.548;2022-12-29T04:48:22;1.63;;;1.35;;
19566;SDS011;9930;49.240;8.548;2022-12-29T04:50:55;1.67;;;1.23;;
19566;SDS011;9930;49.240;8.548;2022-12-29T04:53:27;2.63;;;1.30;;
19566;SDS011;9930;49.240;8.548;2022-12-29T04:55:57;1.98;;;1.50;;
19566;SDS011;9930;49.240;8.548;2022-12-29T04:58:23;1.20;;;1.10;;
19566;SDS011;9930;49.240;8.548;2022-12-29T05:00:57;1.48;;;1.25;;
19566;SDS011;9930;49.240;8.548;2022-12-29T05:03:24;2.08;;;1.10;;
19566;SDS011;9930;49.240;8.548;2022-12-29T05:05:55;1.85;;;1.50;;
19566;SDS011;9930;49.240;8.548;2022-12-29T05:08:24;1.60;;;1.48;;
19566;SDS011;9930;49.240;8.548;2022-12-29T05:10:51;1.40;;;1.30;;
19566;SDS011;9930;49.240;8.548;2022-12-29T05:13:17;1.92;;;1.17;;
19566;SDS011;9930;49.240;8.548;2022-12-29T05:15:52;1.25;;;1.20;;
19566;SDS011;9930;49.240;8.548;2022-12-29T05:18:20;1.40;;;1.30;;
19566;SDS011;9930;49.240;8.548;2022-12-29T05:20:46;1.58;;;1.35;;
19566;SDS011;9930;49.240;8.548;2022-12-29T05:23:12;2.80;;;1.50;;
19566;SDS011;9930;49.240;8.548;2022-12-29T05:25:38;1.63;;;1.40;;
19566;SDS011;9930;49.240;8.548;2022-12-29T05:28:04;1.40;;;1.17;;
19566;SDS011;9930;49.240;8.548;2022-12-29T05:30:33;1.13;;;1.13;;
19566;SDS011;9930;49.240;8.548;2022-12-29T05:32:58;1.42;;;1.33;;
19566;SDS011;9930;49.240;8.548;2022-12-29T05:35:26;1.63;;;1.40;;
19566;SDS011;9930;49.240;8.548;2022-12-29T05:37:57;1.95;;;1.40;;
19566;SDS011;9930;49.240;8.548;2022-12-29T05:40:23;1.45;;;1.35;;
19566;SDS011;9930;49.240;8.548;2022-12-29T05:42:52;1.65;;;1.55;;
19566;SDS011;9930;49.240;8.548;2022-12-29T05:45:27;1.58;;;1.45;;
19566;SDS011;9930;49.240;8.548;2022-12-29T05:47:56;1.67;;;1.25;;
19566;SDS011;9930;49.240;8.548;2022-12-29T05:50:27;1.75;;;1.42;;
19566;SDS011;9930;49.240;8.548;2022-12-29T05:52:55;1.50;;;1.30;;
19566;SDS011;9930;49.240;8.548;2022-12-29T05:55:22;1.70;;;1.45;;
19566;SDS011;9930;49.240;8.548;2022-12-29T05:57:56;1.88;;;1.70;;
19566;SDS011;9930;49.240;8.548;2022-12-29T06:00:35;1.83;;;1.48;;
19566;SDS011;9930;49.240;8.548;2022-12-29T06:03:01;2.70;;;1.70;;
19566;SDS011;9930;49.240;8.548;2022-12-29T06:05:27;1.77;;;1.50;;
19566;SDS011;9930;49.240;8.548;2022-12-29T06:07:53;1.67;;;1.58;;
19566;SDS011;9930;49.240;8.548;2022-12-29T06:10:27;2.33;;;1.65;;
19566;SDS011;9930;49.240;8.548;2022-12-29T06:12:53;2.03;;;1.40;;
19566;SDS011;9930;49.240;8.548;2022-12-29T06:15:21;2.30;;;1.58;;
19566;SDS011;9930;49.240;8.548;2022-12-29T06:17:47;2.30;;;1.42;;
19566;SDS011;9930;49.240;8.548;2022-12-29T06:20:15;1.50;;;1.40;;
19566;SDS011;9930;49.240;8.548;2022-12-29T06:22:43;4.85;;;4.45;;
19566;SDS011;9930;49.240;8.548;2022-12-29T06:25:10;11.27;;;10.10;;
19566;SDS011;9930;49.240;8.548;2022-12-29T06:27:36;5.65;;;5.15;;
19566;SDS011;9930;49.240;8.548;2022-12-29T06:30:04;3.90;;;3.05;;
19566;SDS011;9930;49.240;8.548;2022-12-29T06:32:30;2.50;;;2.03;;
19566;SDS011;9930;49.240;8.548;2022-12-29T06:34:58;2.45;;;1.92;;
19566;SDS011;9930;49.240;8.548;2022-12-29T06:37:26;2.05;;;1.88;;
19566;SDS011;9930;49.240;8.548;2022-12-29T06:40:01;2.30;;;1.63;;
19566;SDS011;9930;49.240;8.548;2022-12-29T06:42:27;2.47;;;1.90;;
19566;SDS011;9930;49.240;8.548;2022-12-29T06:44:56;1.80;;;1.70;;
19566;SDS011;9930;49.240;8.548;2022-12-29T06:47:26;1.73;;;1.60;;
19566;SDS011;9930;49.240;8.548;2022-12-29T06:49:57;1.90;;;1.63;;
19566;SDS011;9930;49.240;8.548;2022-12-29T06:52:27;2.67;;;1.70;;
19566;SDS011;9930;49.240;8.548;2022-12-29T06:54:55;1.88;;;1.65;;
19566;SDS011;9930;49.240;8.548;2022-12-29T06:57:25;2.03;;;1.83;;
19566;SDS011;9930;49.240;8.548;2022-12-29T06:59:55;1.58;;;1.48;;
19566;SDS011;9930;49.240;8.548;2022-12-29T07:02:26;1.70;;;1.60;;
19566;SDS011;9930;49.240;8.548;2022-12-29T07:04:52;2.05;;;1.67;;
19566;SDS011;9930;49.240;8.548;2022-12-29T07:07:22;1.52;;;1.42;;
19566;SDS011;9930;49.240;8.548;2022-12-29T07:09:53;1.65;;;1.55;;
19566;SDS011;9930;49.240;8.548;2022-12-29T07:12:22;2.13;;;1.80;;
19566;SDS011;9930;49.240;8.548;2022-12-29T07:14:52;1.73;;;1.63;;
19566;SDS011;9930;49.240;8.548;2022-12-29T07:17:22;2.00;;;1.80;;
19566;SDS011;9930;49.240;8.548;2022-12-29T07:19:56;2.22;;;1.67;;
19566;SDS011;9930;49.240;8.548;2022-12-29T07:22:22;1.85;;;1.75;;
19566;SDS011;9930;49.240;8.548;2022-12-29T07:24:52;1.80;;;1.70;;
19566;SDS011;9930;49.240;8.548;2022-12-29T07:27:22;1.88;;;1.77;;
19566;SDS011;9930;49.240;8.548;2022-12-29T07:29:54;1.80;;;1.70;;
19566;SDS011;9930;49.240;8.548;2022-12-29T07:32:22;2.65;;;1.80;;
19566;SDS011;9930;49.240;8.548;2022-12-29T07:34:52;1.77;;;1.67;;
19566;SDS011;9930;49.240;8.548;2022-12-29T07:37:21;2.92;;;2.10;;
19566;SDS011;9930;49.240;8.548;2022-12-29T07:39:47;2.00;;;1.70;;
19566;SDS011;9930;49.240;8.548;2022-12-29T07:42:12;1.95;;;1.75;;
19566;SDS011;9930;49.240;8.548;2022-12-29T07:44:38;2.22;;;1.80;;
19566;SDS011;9930;49.240;8.548;2022-12-29T07:47:04;1.90;;;1.80;;
19566;SDS011;9930;49.240;8.548;2022-12-29T07:49:31;1.98;;;1.88;;
19566;SDS011;9930;49.240;8.548;2022-12-29T07:51:57;2.08;;;1.77;;
19566;SDS011;9930;49.240;8.548;2022-12-29T07:54:23;2.60;;;2.20;;
19566;SDS011;9930;49.240;8.548;2022-12-29T07:56:50;2.33;;;2.00;;
19566;SDS011;9930;49.240;8.548;2022-12-29T07:59:16;2.60;;;2.05;;
19566;SDS011;9930;49.240;8.548;2022-12-29T08:01:42;2.15;;;1.90;;
19566;SDS011;9930;49.240;8.548;2022-12-29T08:04:08;1.80;;;1.70;;
19566;SDS011;9930;49.240;8.548;2022-12-29T08:06:34;2.85;;;1.80;;
19566;SDS011;9930;49.240;8.548;2022-12-29T08:09:00;3.35;;;2.15;;
19566;SDS011;9930;49.240;8.548;2022-12-29T08:11:28;1.77;;;1.67;;
19566;SDS011;9930;49.240;8.548;2022-12-29T08:13:54;2.33;;;1.63;;
19566;SDS011;9930;49.240;8.548;2022-12-29T08:16:23;2.10;;;1.70;;
19566;SDS011;9930;49.240;8.548;2022-12-29T08:18:50;3.85;;;1.98;;
19566;SDS011;9930;49.240;8.548;2022-12-29T08:21:16;2.70;;;1.83;;
19566;SDS011;9930;49.240;8.548;2022-12-29T08:23:44;2.50;;;1.95;;
19566;SDS011;9930;49.240;8.548;2022-12-29T08:26:10;2.58;;;1.90;;
19566;SDS011;9930;49.240;8.548;2022-12-29T08:28:38;2.22;;;2.00;;
19566;SDS011;9930;49.240;8.548;2022-12-29T08:31:04;2.65;;;1.92;;
19566;SDS011;9930;49.240;8.548;2022-12-29T08:33:30;1.88;;;1.77;;
19566;SDS011;9930;49.240;8.548;2022-12-29T08:35:59;1.98;;;1.88;;
19566;SDS011;9930;49.240;8.548;2022-12-29T08:38:29;2.00;;;1.80;;
19566;SDS011;9930;49.240;8.548;2022-12-29T08:40:56;1.80;;;1.70;;
19566;SDS011;9930;49.240;8.548;2022-12-29T08:43:26;2.40;;;1.85;;
19566;SDS011;9930;49.240;8.548;2022-12-29T08:45:52;2.83;;;1.80;;
19566;SDS011;9930;49.240;8.548;2022-12-29T08:48:19;1.80;;;1.70;;
19566;SDS011;9930;49.240;8.548;2022-12-29T08:50:47;1.70;;;1.60;;
19566;SDS011;9930;49.240;8.548;2022-12-29T08:53:14;1.80;;;1.63;;
19566;SDS011;9930;49.240;8.548;2022-12-29T08:55:40;2.20;;;1.92;;
19566;SDS011;9930;49.240;8.548;2022-12-29T08:58:06;2.15;;;1.92;;
19566;SDS011;9930;49.240;8.548;2022-12-29T09:00:31;2.00;;;1.77;;
19566;SDS011;9930;49.240;8.548;2022-12-29T09:02:57;2.42;;;1.90;;
19566;SDS011;9930;49.240;8.548;2022-12-29T09:05:25;2.38;;;2.00;;
19566;SDS011;9930;49.240;8.548;2022-12-29T09:07:55;2.20;;;2.00;;
19566;SDS011;9930;49.240;8.548;2022-12-29T09:10:24;2.40;;;1.98;;
19566;SDS011;9930;49.240;8.548;2022-12-29T09:12:51;2.55;;;1.77;;
19566;SDS011;9930;49.240;8.548;2022-12-29T09:15:17;2.13;;;1.92;;
19566;SDS011;9930;49.240;8.548;2022-12-29T09:17:45;2.17;;;1.90;;
19566;SDS011;9930;49.240;8.548;2022-12-29T09:20:14;2.10;;;1.90;;
19566;SDS011;9930;49.240;8.548;2022-12-29T09:22:44;2.22;;;1.77;;
19566;SDS011;9930;49.240;8.548;2022-12-29T09:25:12;2.15;;;1.95;;
19566;SDS011;9930;49.240;8.548;2022-12-29T09:27:38;2.25;;;2.05;;
19566;SDS011;9930;49.240;8.548;2022-12-29T09:30:04;2.17;;;1.95;;
19566;SDS011;9930;49.240;8.548;2022-12-29T09:32:34;2.38;;;2.00;;
19566;SDS011;9930;49.240;8.548;2022-12-29T09:35:03;2.17;;;1.92;;
19566;SDS011;9930;49.240;8.548;2022-12-29T09:37:29;2.05;;;1.80;;
19566;SDS011;9930;49.240;8.548;2022-12-29T09:39:55;2.90;;;2.20;;
19566;SDS011;9930;49.240;8.548;2022-12-29T09:47:43;2.80;;;1.90;;
19566;SDS011;9930;49.240;8.548;2022-12-29T09:53:20;2.45;;;1.85;;
19566;SDS011;9930;49.240;8.548;2022-12-29T09:56:03;2.88;;;1.90;;
19566;SDS011;9930;49.240;8.548;2022-12-29T09:58:39;2.63;;;1.95;;
19566;SDS011;9930;49.240;8.548;2022-12-29T10:04:16;3.53;;;3.22;;
19566;SDS011;9930;49.240;8.548;2022-12-29T10:19:16;2.50;;;2.00;;
19566;SDS011;9930;49.240;8.548;2022-12-29T10:24:52;2.42;;;2.22;;
19566;SDS011;9930;49.240;8.548;2022-12-29T10:27:24;2.33;;;2.10;;
19566;SDS011;9930;49.240;8.548;2022-12-29T10:29:56;2.95;;;2.20;;
19566;SDS011;9930;49.240;8.548;2022-12-29T10:35:12;2.55;;;2.15;;
19566;SDS011;9930;49.240;8.548;2022-12-29T10:38:04;1.85;;;1.75;;
19566;SDS011;9930;49.240;8.548;2022-12-29T10:40:58;2.95;;;2.10;;
19566;SDS011;9930;49.240;8.548;2022-12-29T10:44:01;4.75;;;2.13;;
19566;SDS011;9930;49.240;8.548;2022-12-29T10:46:33;1.63;;;1.52;;
19566;SDS011;9930;49.240;8.548;2022-12-29T10:49:04;1.98;;;1.77;;
19566;SDS011;9930;49.240;8.548;2022-12-29T10:51:38;2.15;;;1.73;;
19566;SDS011;9930;49.240;8.548;2022-12-29T10:54:11;1.95;;;1.70;;
19566;SDS011;9930;49.240;8.548;2022-12-29T10:57:05;1.63;;;1.50;;
19566;SDS011;9930;49.240;8.548;2022-12-29T10:59:43;1.60;;;1.50;;
19566;SDS011;9930;49.240;8.548;2022-12-29T11:07:22;1.70;;;1.60;;
19566;SDS011;9930;49.240;8.548;2022-12-29T11:09:52;2.40;;;2.20;;
19566;SDS011;9930;49.240;8.548;2022-12-29T11:12:40;2.30;;;1.90;;
19566;SDS011;9930;49.240;8.548;2022-12-29T11:15:22;12.68;;;11.35;;
19566;SDS011;9930;49.240;8.548;2022-12-29T11:17:52;9.55;;;8.57;;
19566;SDS011;9930;49.240;8.548;2022-12-29T11:23:00;5.65;;;5.15;;
19566;SDS011;9930;49.240;8.548;2022-12-29T11:25:28;4.93;;;4.10;;
19566;SDS011;9930;49.240;8.548;2022-12-29T11:28:01;4.00;;;3.42;;
19566;SDS011;9930;49.240;8.548;2022-12-29T11:30:42;4.88;;;3.70;;
19566;SDS011;9930;49.240;8.548;2022-12-29T11:33:08;3.15;;;2.85;;
19566;SDS011;9930;49.240;8.548;2022-12-29T11:35:36;6.47;;;5.50;;
19566;SDS011;9930;49.240;8.548;2022-12-29T11:39:16;8.05;;;7.25;;
19566;SDS011;9930;49.240;8.548;2022-12-29T11:41:11;13.20;;;12.00;;
19566;SDS011;9930;49.240;8.548;2022-12-29T11:43:45;9.63;;;8.82;;
19566;SDS011;9930;49.240;8.548;2022-12-29T11:46:14;6.15;;;5.55;;
19566;SDS011;9930;49.240;8.548;2022-12-29T11:48:45;5.15;;;4.72;;
19566;SDS011;9930;49.240;8.548;2022-12-29T11:51:22;4.57;;;4.00;;
19566;SDS011;9930;49.240;8.548;2022-12-29T11:53:57;3.92;;;3.58;;
19566;SDS011;9930;49.240;8.548;2022-12-29T11:56:38;4.47;;;3.40;;
19566;SDS011;9930;49.240;8.548;2022-12-29T12:05:21;2.42;;;1.90;;
19566;SDS011;9930;49.240;8.548;2022-12-29T12:11:38;2.70;;;2.50;;
19566;SDS011;9930;49.240;8.548;2022-12-29T12:17:40;2.92;;;2.63;;
19566;SDS011;9930;49.240;8.548;2022-12-29T12:20:36;2.80;;;2.03;;
19566;SDS011;9930;49.240;8.548;2022-12-29T12:26:03;1.80;;;1.70;;
19566;SDS011;9930;49.240;8.548;2022-12-29T12:28:34;1.95;;;1.85;;
19566;SDS011;9930;49.240;8.548;2022-12-29T12:34:37;1.70;;;1.40;;
19566;SDS011;9930;49.240;8.548;2022-12-29T12:37:15;2.05;;;1.70;;
19566;SDS011;9930;49.240;8.548;2022-12-29T12:40:25;2.10;;;1.63;;
19566;SDS011;9930;49.240;8.548;2022-12-29T12:52:00;1.70;;;1.52;;
19566;SDS011;9930;49.240;8.548;2022-12-29T13:00:18;2.70;;;2.50;;
19566;SDS011;9930;49.240;8.548;2022-12-29T13:02:56;4.00;;;3.60;;
19566;SDS011;9930;49.240;8.548;2022-12-29T13:08:25;12.82;;;11.50;;
19566;SDS011;9930;49.240;8.548;2022-12-29T13:14:18;13.80;;;12.70;;
19566;SDS011;9930;49.240;8.548;2022-12-29T13:17:03;7.00;;;6.50;;
19566;SDS011;9930;49.240;8.548;2022-12-29T13:19:55;3.50;;;3.20;;
19566;SDS011;9930;49.240;8.548;2022-12-29T13:23:09;2.88;;;2.05;;
19566;SDS011;9930;49.240;8.548;2022-12-29T13:25:59;1.70;;;1.60;;
19566;SDS011;9930;49.240;8.548;2022-12-29T13:28:48;1.88;;;1.58;;
19566;SDS011;9930;49.240;8.548;2022-12-29T13:34:36;1.20;;;1.10;;
19566;SDS011;9930;49.240;8.548;2022-12-29T13:37:40;1.83;;;1.70;;
19566;SDS011;9930;49.240;8.548;2022-12-29T13:40:23;2.00;;;1.90;;
19566;SDS011;9930;49.240;8.548;2022-12-29T13:42:59;2.10;;;1.90;;
19566;SDS011;9930;49.240;8.548;2022-12-29T13:45:28;1.48;;;1.38;;
19566;SDS011;9930;49.240;8.548;2022-12-29T13:48:00;2.42;;;1.90;;
19566;SDS011;9930;49.240;8.548;2022-12-29T13:50:48;2.47;;;1.48;;
19566;SDS011;9930;49.240;8.548;2022-12-29T13:53:51;1.48;;;1.27;;
19566;SDS011;9930;49.240;8.548;2022-12-29T13:56:58;1.95;;;1.27;;
19566;SDS011;9930;49.240;8.548;2022-12-29T14:00:04;2.17;;;1.38;;
19566;SDS011;9930;49.240;8.548;2022-12-29T14:07:47;1.60;;;1.50;;
19566;SDS011;9930;49.240;8.548;2022-12-29T14:10:37;2.17;;;1.48;;
19566;SDS011;9930;49.240;8.548;2022-12-29T14:13:13;1.85;;;1.70;;
19566;SDS011;9930;49.240;8.548;2022-12-29T14:15:44;1.63;;;1.52;;
19566;SDS011;9930;49.240;8.548;2022-12-29T14:18:26;1.50;;;1.35;;
19566;SDS011;9930;49.240;8.548;2022-12-29T14:21:04;1.70;;;1.40;;
19566;SDS011;9930;49.240;8.548;2022-12-29T14:23:48;1.88;;;1.70;;
19566;SDS011;9930;49.240;8.548;2022-12-29T14:26:17;3.20;;;2.20;;
19566;SDS011;9930;49.240;8.548;2022-12-29T14:28:44;2.15;;;1.50;;
19566;SDS011;9930;49.240;8.548;2022-12-29T14:33:39;1.85;;;1.52;;
19566;SDS011;9930;49.240;8.548;2022-12-29T14:42:10;2.53;;;1.30;;
19566;SDS011;9930;49.240;8.548;2022-12-29T14:44:49;1.80;;;1.60;;
19566;SDS011;9930;49.240;8.548;2022-12-29T14:47:22;1.90;;;1.80;;
19566;SDS011;9930;49.240;8.548;2022-12-29T14:50:03;3.28;;;2.08;;
19566;SDS011;9930;49.240;8.548;2022-12-29T14:52:35;2.88;;;2.58;;
19566;SDS011;9930;49.240;8.548;2022-12-29T15:00:53;2.47;;;2.28;;
19566;SDS011;9930;49.240;8.548;2022-12-29T15:03:30;2.13;;;1.90;;
19566;SDS011;9930;49.240;8.548;2022-12-29T15:12:00;3.28;;;2.40;;
19566;SDS011;9930;49.240;8.548;2022-12-29T15:19:57;3.10;;;2.80;;
19566;SDS011;9930;49.240;8.548;2022-12-29T15:22:47;2.63;;;2.28;;
19566;SDS011;9930;49.240;8.548;2022-12-29T15:25:23;1.90;;;1.80;;
19566;SDS011;9930;49.240;8.548;2022-12-29T15:28:00;2.25;;;1.50;;
19566;SDS011;9930;49.240;8.548;2022-12-29T15:30:33;2.78;;;2.08;;
19566;SDS011;9930;49.240;8.548;2022-12-29T15:33:00;2.45;;;2.25;;
19566;SDS011;9930;49.240;8.548;2022-12-29T15:35:30;2.83;;;2.63;;
19566;SDS011;9930;49.240;8.548;2022-12-29T15:38:12;2.72;;;2.53;;
19566;SDS011;9930;49.240;8.548;2022-12-29T15:40:44;2.45;;;2.25;;
19566;SDS011;9930;49.240;8.548;2022-12-29T15:43:14;2.08;;;1.88;;
19566;SDS011;9930;49.240;8.548;2022-12-29T15:46:02;2.00;;;1.88;;
19566;SDS011;9930;49.240;8.548;2022-12-29T15:48:28;3.97;;;3.63;;
19566;SDS011;9930;49.240;8.548;2022-12-29T15:50:57;5.32;;;4.03;;
19566;SDS011;9930;49.240;8.548;2022-12-29T15:53:28;5.88;;;4.97;;
19566;SDS011;9930;49.240;8.548;2022-12-29T15:56:06;8.25;;;6.18;;
19566;SDS011;9930;49.240;8.548;2022-12-29T15:58:42;5.75;;;4.95;;
19566;SDS011;9930;49.240;8.548;2022-12-29T16:01:19;6.07;;;5.22;;
19566;SDS011;9930;49.240;8.548;2022-12-29T16:04:06;4.38;;;3.72;;
19566;SDS011;9930;49.240;8.548;2022-12-29T16:06:38;3.17;;;2.88;;
19566;SDS011;9930;49.240;8.548;2022-12-29T16:09:17;4.07;;;2.70;;
19566;SDS011;9930;49.240;8.548;2022-12-29T16:11:53;2.28;;;2.08;;
19566;SDS011;9930;49.240;8.548;2022-12-29T16:17:12;1.63;;;1.52;;
19566;SDS011;9930;49.240;8.548;2022-12-29T16:22:39;2.15;;;1.90;;
19566;SDS011;9930;49.240;8.548;2022-12-29T16:27:58;1.55;;;1.40;;
19566;SDS011;9930;49.240;8.548;2022-12-29T16:30:30;1.60;;;1.50;;
19566;SDS011;9930;49.240;8.548;2022-12-29T16:33:01;2.85;;;2.58;;
19566;SDS011;9930;49.240;8.548;2022-12-29T16:38:15;4.68;;;3.30;;
19566;SDS011;9930;49.240;8.548;2022-12-29T16:40:53;2.40;;;2.20;;
19566;SDS011;9930;49.240;8.548;2022-12-29T16:43:34;1.95;;;1.77;;
19566;SDS011;9930;49.240;8.548;2022-12-29T16:46:26;2.40;;;2.05;;
19566;SDS011;9930;49.240;8.548;2022-12-29T16:48:55;2.97;;;1.60;;
19566;SDS011;9930;49.240;8.548;2022-12-29T16:51:32;2.00;;;1.80;;
19566;SDS011;9930;49.240;8.548;2022-12-29T16:54:01;1.70;;;1.60;;
19566;SDS011;9930;49.240;8.548;2022-12-29T16:56:30;1.90;;;1.58;;
19566;SDS011;9930;49.240;8.548;2022-12-29T16:59:05;1.70;;;1.50;;
19566;SDS011;9930;49.240;8.548;2022-12-29T17:02:10;2.00;;;1.80;;
19566;SDS011;9930;49.240;8.548;2022-12-29T17:04:43;2.40;;;2.20;;
19566;SDS011;9930;49.240;8.548;2022-12-29T17:07:17;2.60;;;2.22;;
19566;SDS011;9930;49.240;8.548;2022-12-29T17:09:56;2.65;;;2.05;;
19566;SDS011;9930;49.240;8.548;2022-12-29T17:12:28;2.40;;;2.20;;
19566;SDS011;9930;49.240;8.548;2022-12-29T17:15:07;2.22;;;2.03;;
19566;SDS011;9930;49.240;8.548;2022-12-29T17:18:01;2.67;;;2.20;;
19566;SDS011;9930;49.240;8.548;2022-12-29T17:20:29;5.10;;;2.88;;
19566;SDS011;9930;49.240;8.548;2022-12-29T17:22:58;2.47;;;2.28;;
19566;SDS011;9930;49.240;8.548;2022-12-29T17:25:30;3.42;;;2.40;;
19566;SDS011;9930;49.240;8.548;2022-12-29T17:28:02;3.20;;;2.30;;
19566;SDS011;9930;49.240;8.548;2022-12-29T17:30:46;2.70;;;1.90;;
19566;SDS011;9930;49.240;8.548;2022-12-29T17:33:19;3.25;;;2.47;;
19566;SDS011;9930;49.240;8.548;2022-12-29T17:35:45;2.80;;;2.60;;
19566;SDS011;9930;49.240;8.548;2022-12-29T17:38:24;2.83;;;2.63;;
19566;SDS011;9930;49.240;8.548;2022-12-29T17:40:54;3.83;;;2.70;;
19566;SDS011;9930;49.240;8.548;2022-12-29T17:43:52;2.88;;;2.60;;
19566;SDS011;9930;49.240;8.548;2022-12-29T17:46:30;3.13;;;2.70;;
19566;SDS011;9930;49.240;8.548;2022-12-29T17:49:01;4.50;;;2.45;;
19566;SDS011;9930;49.240;8.548;2022-12-29T17:51:28;3.83;;;2.60;;
19566;SDS011;9930;49.240;8.548;2022-12-29T17:53:58;2.75;;;2.17;;
19566;SDS011;9930;49.240;8.548;2022-12-29T17:56:27;3.22;;;2.45;;
19566;SDS011;9930;49.240;8.548;2022-12-29T17:58:55;3.05;;;2.25;;
19566;SDS011;9930;49.240;8.548;2022-12-29T18:01:24;3.58;;;2.30;;
19566;SDS011;9930;49.240;8.548;2022-12-29T18:03:53;3.85;;;2.42;;
19566;SDS011;9930;49.240;8.548;2022-12-29T18:06:20;3.58;;;2.65;;
19566;SDS011;9930;49.240;8.548;2022-12-29T18:08:46;4.05;;;2.90;;
19566;SDS011;9930;49.240;8.548;2022-12-29T18:11:30;4.70;;;2.97;;
19566;SDS011;9930;49.240;8.548;2022-12-29T18:13:56;21.15;;;11.68;;
19566;SDS011;9930;49.240;8.548;2022-12-29T18:16:23;24.75;;;15.55;;
19566;SDS011;9930;49.240;8.548;2022-12-29T18:18:49;12.95;;;8.88;;
19566;SDS011;9930;49.240;8.548;2022-12-29T18:21:16;9.05;;;6.05;;
19566;SDS011;9930;49.240;8.548;2022-12-29T18:23:48;5.90;;;4.00;;